Terminal Aerodrome Forecast
Issued by NWS

Home | Current Version | Previous Version | Text Only | Print | Product List | Glossary On
Versions: 1 2 3 4 5 6 7 8 9 10 11 12 13 14
000
FTUS43 KICT 130800 AAA
TAFHUT
TAF AMD
KHUT 130819Z 1308/1406 VRB03KT 3SM BR SKC
      TEMPO 1308/1312 1SM BR SCT001
     FM131400 14007KT P6SM SCT035
     FM131700 17013KT P6SM SCT080=

USA.gov is the U.S. government's official web portal to all federal, state and local government web resources and services.